Oktjabr'Skoe, Russia
Current Conditions -  °F | °C
As of 2:30 PM on Sunday 26 Oct 2014 (Local Time) from USHH Reporting Station
Snow Showers Snow Showers  
Wind Chill:   Ceiling: 8000
Heat Index: 12°   Visibility: 6mi
Dew Point:   Wind: 4mph
Humidity: 73%   Direction: 330°NNW
Pressure: 29.83"   Gusts: 11mph
Location:  62.45°N, 66.05°E
Report Text: USHH 260930Z 33002G05MPS 300V020 9999 -SHSN SCT016CB OVC080M11/M15 Q1010 TEMPO 1500 SHSN BKN005 RMK QFE754 06////47
Loading
Personal Weather Stations






























Interactive Weather Map
Tropical Storm Tracking
New forecast layout! Learn more

10-Day Weather Forecast

Advertisements
Track Severe Weather on mobile